createdAt,value
2023-02-27T00:01:04.681Z,1023.2
2023-02-27T00:02:19.883Z,1023.2
2023-02-27T00:03:35.100Z,1023.2
2023-02-27T00:04:50.208Z,1023.2
2023-02-27T00:06:06.488Z,1023.2
2023-02-27T00:07:22.677Z,1023.2
2023-02-27T00:08:38.862Z,1023.1
2023-02-27T00:09:55.064Z,1023.1
2023-02-27T00:11:11.252Z,1023.2
2023-02-27T00:12:27.324Z,1023.2
2023-02-27T00:13:43.623Z,1023.2
2023-02-27T00:14:59.822Z,1023.2
2023-02-27T00:16:15.907Z,1023.2
2023-02-27T00:17:32.183Z,1023.2
2023-02-27T00:18:48.274Z,1023.2
2023-02-27T00:20:04.457Z,1023.2
2023-02-27T00:21:19.785Z,1023.2
2023-02-27T00:22:35.972Z,1023.2
2023-02-27T00:23:52.149Z,1023.2
2023-02-27T00:25:08.341Z,1023.2
2023-02-27T00:26:24.438Z,1023.2
2023-02-27T00:27:40.621Z,1023.2
2023-02-27T00:28:56.906Z,1023.2
2023-02-27T00:30:12.118Z,1023.2
2023-02-27T00:31:27.324Z,1023.2
2023-02-27T00:32:42.555Z,1023.2
2023-02-27T00:33:57.658Z,1023.2
2023-02-27T00:35:13.840Z,1023.2
2023-02-27T00:36:30.127Z,1023.3
2023-02-27T00:37:46.322Z,1023.3
2023-02-27T00:39:02.514Z,1023.3
2023-02-27T00:40:18.692Z,1023.3
2023-02-27T00:41:34.793Z,1023.2
2023-02-27T00:42:50.977Z,1023.2
2023-02-27T00:44:07.164Z,1023.2
2023-02-27T00:45:23.463Z,1023.2
2023-02-27T00:46:39.637Z,1023.3
2023-02-27T00:47:55.844Z,1023.2
2023-02-27T00:49:12.031Z,1023.2
2023-02-27T00:50:27.238Z,1023.2
2023-02-27T00:51:43.414Z,1023.2
2023-02-27T00:52:59.618Z,1023.2
2023-02-27T00:54:15.796Z,1023.2
2023-02-27T00:55:31.986Z,1023.2
2023-02-27T00:56:48.182Z,1023.2
2023-02-27T00:58:04.261Z,1023.2
2023-02-27T00:59:19.587Z,1023.2
2023-02-27T01:00:34.669Z,1023.3
2023-02-27T01:01:50.874Z,1023.2
2023-02-27T01:03:07.168Z,1023.2
2023-02-27T01:04:23.352Z,1023.2
2023-02-27T01:05:39.434Z,1023.2
2023-02-27T01:06:55.610Z,1023.1
2023-02-27T01:08:11.938Z,1023.1
2023-02-27T01:09:27.993Z,1023.1
2023-02-27T01:10:44.307Z,1023.1
2023-02-27T01:12:00.499Z,1023.1
2023-02-27T01:13:16.688Z,1023.2
2023-02-27T01:14:32.876Z,1023.1
2023-02-27T01:15:49.057Z,1023.2
2023-02-27T01:17:04.268Z,1023.1
2023-02-27T01:18:20.449Z,1023.2
2023-02-27T01:19:36.646Z,1023.1
2023-02-27T01:20:52.823Z,1023.1
2023-02-27T01:22:08.912Z,1023.1
2023-02-27T01:23:25.208Z,1023.1
2023-02-27T01:24:41.397Z,1023.1
2023-02-27T01:25:56.608Z,1023.1
2023-02-27T01:27:11.816Z,1023.1
2023-02-27T01:28:26.923Z,1023.1
2023-02-27T01:29:42.242Z,1023.1
2023-02-27T01:30:57.348Z,1023.1
2023-02-27T01:32:12.672Z,1023.1
2023-02-27T01:33:28.864Z,1023
2023-02-27T01:34:44.924Z,1023
2023-02-27T01:36:01.123Z,1023.1
2023-02-27T01:37:17.423Z,1023
2023-02-27T01:38:33.608Z,1023
2023-02-27T01:39:49.800Z,1023.1
2023-02-27T01:41:05.993Z,1023
2023-02-27T01:42:22.176Z,1023.1
2023-02-27T01:43:38.250Z,1023.1
2023-02-27T01:44:54.560Z,1023
2023-02-27T01:46:10.746Z,1023
2023-02-27T01:47:26.933Z,1023.1
2023-02-27T01:48:42.147Z,1023
2023-02-27T01:49:58.331Z,1023
2023-02-27T01:51:14.530Z,1023
2023-02-27T01:52:30.717Z,1023
2023-02-27T01:53:46.775Z,1023.1
2023-02-27T01:55:02.973Z,1023
2023-02-27T01:56:19.280Z,1023
2023-02-27T01:57:34.498Z,1023
2023-02-27T01:58:49.702Z,1023
2023-02-27T02:00:04.788Z,1023.1
2023-02-27T02:01:20.129Z,1023.1
2023-02-27T02:02:36.329Z,1023.1
2023-02-27T02:03:52.506Z,1023.2
2023-02-27T02:05:08.683Z,1023.2
2023-02-27T02:06:24.746Z,1023
2023-02-27T02:07:41.067Z,1023.1
2023-02-27T02:08:57.127Z,1023.1
2023-02-27T02:10:13.440Z,1023.1
2023-02-27T02:11:29.631Z,1023
2023-02-27T02:12:45.832Z,1023
2023-02-27T02:14:02.010Z,1023
2023-02-27T02:15:18.074Z,1023.1
2023-02-27T02:16:34.395Z,1023.1
2023-02-27T02:17:49.589Z,1023.1
2023-02-27T02:19:05.796Z,1023.1
2023-02-27T02:20:21.969Z,1023.1
2023-02-27T02:21:38.035Z,1023.1
2023-02-27T02:22:54.357Z,1023.1
2023-02-27T02:24:10.546Z,1023.1
2023-02-27T02:25:26.722Z,1023.1
2023-02-27T02:26:41.807Z,1023
2023-02-27T02:27:57.152Z,1023.1
2023-02-27T02:29:12.365Z,1023.1
2023-02-27T02:30:27.580Z,1023.1
2023-02-27T02:31:42.794Z,1023.1
2023-02-27T02:32:57.992Z,1023.1
2023-02-27T02:34:14.195Z,1023.2
2023-02-27T02:35:30.243Z,1023.2
2023-02-27T02:36:46.442Z,1023.1
2023-02-27T02:38:02.759Z,1023.2
2023-02-27T02:39:18.950Z,1023.2
2023-02-27T02:40:35.127Z,1023.2
2023-02-27T02:41:51.328Z,1023.3
2023-02-27T02:43:07.516Z,1023.2
2023-02-27T02:44:23.708Z,1023.2
2023-02-27T02:45:39.748Z,1023.2
2023-02-27T02:46:56.069Z,1023.2
2023-02-27T02:48:12.269Z,1023.3
2023-02-27T02:49:27.483Z,1023.2
2023-02-27T02:50:43.528Z,1023.3
2023-02-27T02:51:59.854Z,1023.3
2023-02-27T02:53:16.032Z,1023.2
2023-02-27T02:54:32.233Z,1023.3
2023-02-27T02:55:48.423Z,1023.3
2023-02-27T02:57:04.603Z,1023.3
2023-02-27T02:58:19.681Z,1023.4
2023-02-27T02:59:35.039Z,1023.3
2023-02-27T03:00:50.249Z,1023.3
2023-02-27T03:02:05.446Z,1023.3
2023-02-27T03:03:21.494Z,1023.4
2023-02-27T03:04:37.832Z,1023.3
2023-02-27T03:05:53.051Z,1023.4
2023-02-27T03:07:09.225Z,1023.3
2023-02-27T03:08:25.269Z,1023.3
2023-02-27T03:09:41.477Z,1023.3
2023-02-27T03:10:57.798Z,1023.3
2023-02-27T03:12:13.840Z,1023.4
2023-02-27T03:13:30.177Z,1023.4
2023-02-27T03:14:46.373Z,1023.4
2023-02-27T03:16:02.418Z,1023.3
2023-02-27T03:17:18.738Z,1023.4
2023-02-27T03:18:34.928Z,1023.4
2023-02-27T03:19:50.988Z,1023.4
2023-02-27T03:21:07.318Z,1023.5
2023-02-27T03:22:22.365Z,1023.4
2023-02-27T03:23:38.712Z,1023.4
2023-02-27T03:24:54.897Z,1023.4
2023-02-27T03:26:10.941Z,1023.4
2023-02-27T03:27:26.303Z,1023.5
2023-02-27T03:28:41.510Z,1023.5
2023-02-27T03:29:57.702Z,1023.5
2023-02-27T03:31:14.027Z,1023.4
2023-02-27T03:32:29.096Z,1023.5
2023-02-27T03:33:45.437Z,1023.5
2023-02-27T03:35:01.608Z,1023.5
2023-02-27T03:36:17.655Z,1023.5
2023-02-27T03:37:33.849Z,1023.5
2023-02-27T03:38:50.185Z,1023.5
2023-02-27T03:40:06.366Z,1023.6
2023-02-27T03:41:22.426Z,1023.5
2023-02-27T03:42:38.755Z,1023.6
2023-02-27T03:43:54.933Z,1023.6
2023-02-27T03:45:10.983Z,1023.6
2023-02-27T03:46:27.318Z,1023.6
2023-02-27T03:47:43.514Z,1023.6
2023-02-27T03:48:58.705Z,1023.7
2023-02-27T03:50:14.912Z,1023.6
2023-02-27T03:51:30.947Z,1023.7
2023-02-27T03:52:47.127Z,1023.7
2023-02-27T03:54:03.331Z,1023.7
2023-02-27T03:55:19.661Z,1023.7
2023-02-27T03:56:35.848Z,1023.7
2023-02-27T03:57:51.072Z,1023.7
2023-02-27T03:59:06.281Z,1023.7
2023-02-27T04:00:21.493Z,1023.7
2023-02-27T04:01:36.692Z,1023.7
2023-02-27T04:02:52.875Z,1023.7
2023-02-27T04:04:09.082Z,1023.8
2023-02-27T04:05:25.261Z,1023.7
2023-02-27T04:06:41.303Z,1023.8
2023-02-27T04:07:57.641Z,1023.7
2023-02-27T04:09:13.670Z,1023.8
2023-02-27T04:10:29.867Z,1023.8
2023-02-27T04:11:46.208Z,1023.8
2023-02-27T04:13:02.403Z,1023.8
2023-02-27T04:14:18.588Z,1023.8
2023-02-27T04:15:34.630Z,1023.8
2023-02-27T04:16:50.974Z,1023.9
2023-02-27T04:18:06.171Z,1023.8
2023-02-27T04:19:22.361Z,1023.9
2023-02-27T04:20:38.554Z,1023.9
2023-02-27T04:21:54.743Z,1023.9
2023-02-27T04:23:10.761Z,1023.9
2023-02-27T04:24:27.124Z,1023.9
2023-02-27T04:25:43.305Z,1023.9
2023-02-27T04:26:58.512Z,1023.9
2023-02-27T04:28:13.582Z,1023.9
2023-02-27T04:29:28.777Z,1023.9
2023-02-27T04:30:43.999Z,1023.9
2023-02-27T04:32:00.189Z,1023.9
2023-02-27T04:33:16.533Z,1024
2023-02-27T04:34:32.715Z,1024
2023-02-27T04:35:48.899Z,1024
2023-02-27T04:37:05.095Z,1023.9
2023-02-27T04:38:21.283Z,1024
2023-02-27T04:39:37.312Z,1024
2023-02-27T04:40:53.664Z,1024
2023-02-27T04:42:09.852Z,1024
2023-02-27T04:43:26.037Z,1024
2023-02-27T04:44:42.220Z,1024
2023-02-27T04:45:58.422Z,1024
2023-02-27T04:47:13.611Z,1024
2023-02-27T04:48:29.813Z,1024
2023-02-27T04:49:45.841Z,1024
2023-02-27T04:51:02.018Z,1024
2023-02-27T04:52:18.364Z,1024.1
2023-02-27T04:53:34.387Z,1024
2023-02-27T04:54:50.740Z,1024.1
2023-02-27T04:56:05.803Z,1024.1
2023-02-27T04:57:21.005Z,1024
2023-02-27T04:58:36.385Z,1024
2023-02-27T04:59:51.576Z,1024
2023-02-27T05:01:07.598Z,1024
2023-02-27T05:02:23.956Z,1024
2023-02-27T05:03:40.143Z,1023.9
2023-02-27T05:04:56.325Z,1023.9
2023-02-27T05:06:12.516Z,1024
2023-02-27T05:07:28.707Z,1024
2023-02-27T05:08:44.893Z,1024
2023-02-27T05:10:01.068Z,1024
2023-02-27T05:11:17.258Z,1024
2023-02-27T05:12:33.460Z,1024
2023-02-27T05:13:49.470Z,1024
2023-02-27T05:15:05.832Z,1023.9
2023-02-27T05:16:21.028Z,1024
2023-02-27T05:17:37.212Z,1024
2023-02-27T05:18:53.403Z,1024
2023-02-27T05:20:09.585Z,1023.9
2023-02-27T05:21:25.785Z,1023.9
2023-02-27T05:22:41.966Z,1024
2023-02-27T05:23:57.983Z,1024
2023-02-27T05:25:13.363Z,1024
2023-02-27T05:26:28.568Z,1024
2023-02-27T05:27:44.753Z,1024
2023-02-27T05:28:59.974Z,1024
2023-02-27T05:30:15.009Z,1023.9
2023-02-27T05:31:31.361Z,1023.9
2023-02-27T05:32:47.388Z,1024
2023-02-27T05:34:03.563Z,1024
2023-02-27T05:35:19.753Z,1024
2023-02-27T05:36:36.118Z,1024
2023-02-27T05:37:52.309Z,1024.1
2023-02-27T05:39:08.500Z,1024.1
2023-02-27T05:40:24.672Z,1024.1
2023-02-27T05:41:40.861Z,1024.1
2023-02-27T05:42:57.062Z,1024.1
2023-02-27T05:44:13.076Z,1024.2
2023-02-27T05:45:29.438Z,1024.2
2023-02-27T05:46:44.626Z,1024.2
2023-02-27T05:48:00.642Z,1024.2
2023-02-27T05:49:17.009Z,1024.2
2023-02-27T05:50:33.191Z,1024.1
2023-02-27T05:51:49.393Z,1024.2
2023-02-27T05:53:05.573Z,1024.2
2023-02-27T05:54:21.756Z,1024.2
2023-02-27T05:55:36.974Z,1024.3
2023-02-27T05:56:52.175Z,1024.2
2023-02-27T05:58:07.387Z,1024.3
2023-02-27T05:59:22.600Z,1024.3
2023-02-27T06:00:38.781Z,1024.3
2023-02-27T06:01:54.968Z,1024.3
2023-02-27T06:03:11.163Z,1024.4
2023-02-27T06:04:27.340Z,1024.3
2023-02-27T06:05:43.529Z,1024.3
2023-02-27T06:06:59.716Z,1024.3
2023-02-27T06:09:31.907Z,1024.4
2023-02-27T06:10:48.291Z,1024.4
2023-02-27T06:12:04.284Z,1024.4
2023-02-27T06:13:20.479Z,1024.4
2023-02-27T06:14:36.841Z,1024.5
2023-02-27T06:15:52.041Z,1024.5
2023-02-27T06:17:08.061Z,1024.4
2023-02-27T06:18:24.418Z,1024.4
2023-02-27T06:19:40.615Z,1024.5
2023-02-27T06:20:56.792Z,1024.5
2023-02-27T06:22:12.979Z,1024.5
2023-02-27T06:23:29.166Z,1024.6
2023-02-27T06:24:45.173Z,1024.6
2023-02-27T06:26:00.577Z,1024.5
2023-02-27T06:27:15.591Z,1024.5
2023-02-27T06:28:31.957Z,1024.5
2023-02-27T06:29:47.171Z,1024.6
2023-02-27T06:31:02.379Z,1024.5
2023-02-27T06:32:18.384Z,1024.6
2023-02-27T06:33:34.763Z,1024.6
2023-02-27T06:34:50.942Z,1024.6
2023-02-27T06:36:07.124Z,1024.6
2023-02-27T06:37:23.325Z,1024.7
2023-02-27T06:38:39.313Z,1024.7
2023-02-27T06:39:55.502Z,1024.7
2023-02-27T06:41:11.877Z,1024.8
2023-02-27T06:42:28.063Z,1024.8
2023-02-27T06:43:44.264Z,1024.8
2023-02-27T06:45:00.438Z,1024.9
2023-02-27T06:46:16.640Z,1024.7
2023-02-27T06:47:31.641Z,1024.8
2023-02-27T06:48:48.017Z,1024.8
2023-02-27T06:50:04.201Z,1024.8
2023-02-27T06:51:20.214Z,1024.8
2023-02-27T06:52:36.577Z,1024.8
2023-02-27T06:53:52.763Z,1024.7
2023-02-27T06:55:08.960Z,1024.8
2023-02-27T06:56:24.185Z,1024.8
2023-02-27T06:57:39.380Z,1024.8
2023-02-27T06:58:55.576Z,1024.9
2023-02-27T07:00:10.783Z,1024.9
2023-02-27T07:01:25.988Z,1025
2023-02-27T07:02:41.972Z,1025
2023-02-27T07:03:58.355Z,1025.1
2023-02-27T07:05:14.540Z,1025.2
2023-02-27T07:06:30.739Z,1025.2
2023-02-27T07:07:46.930Z,1025.2
2023-02-27T07:09:03.102Z,1025.2
2023-02-27T07:10:19.112Z,1025.2
2023-02-27T07:11:35.488Z,1025.2
2023-02-27T07:12:51.674Z,1025.2
2023-02-27T07:14:07.849Z,1025.3
2023-02-27T07:15:24.048Z,1025.4
2023-02-27T07:16:40.234Z,1025.4
2023-02-27T07:17:55.234Z,1025.4
2023-02-27T07:19:11.623Z,1025.3
2023-02-27T07:20:26.829Z,1025.3
2023-02-27T07:21:43.019Z,1025.3
2023-02-27T07:22:59.203Z,1025.3
2023-02-27T07:24:15.192Z,1025.4
2023-02-27T07:25:31.583Z,1025.4
2023-02-27T07:26:46.808Z,1025.4
2023-02-27T07:28:01.808Z,1025.4
2023-02-27T07:29:17.224Z,1025.4
2023-02-27T07:30:32.230Z,1025.4
2023-02-27T07:31:48.415Z,1025.4
2023-02-27T07:33:04.595Z,1025.4
2023-02-27T07:34:20.990Z,1025.4
2023-02-27T07:35:37.168Z,1025.4
2023-02-27T07:36:53.358Z,1025.4
2023-02-27T07:38:09.342Z,1025.3
2023-02-27T07:39:25.735Z,1025.4
2023-02-27T07:40:41.925Z,1025.4
2023-02-27T07:41:57.908Z,1025.4
2023-02-27T07:43:14.297Z,1025.4
2023-02-27T07:44:30.473Z,1025.4
2023-02-27T07:45:46.678Z,1025.4
2023-02-27T07:47:01.876Z,1025.4
2023-02-27T07:48:17.866Z,1025.3
2023-02-27T07:49:34.237Z,1025.4
2023-02-27T07:50:50.440Z,1025.4
2023-02-27T07:52:06.630Z,1025.4
2023-02-27T07:53:22.817Z,1025.4
2023-02-27T07:54:38.994Z,1025.4
2023-02-27T07:55:54.211Z,1025.4
2023-02-27T07:57:09.207Z,1025.4
2023-02-27T07:58:24.622Z,1025.5
2023-02-27T07:59:39.834Z,1025.4
2023-02-27T08:00:56.023Z,1025.5
2023-02-27T08:02:12.208Z,1025.5
2023-02-27T08:03:28.193Z,1025.5
2023-02-27T08:04:44.586Z,1025.5
2023-02-27T08:06:00.777Z,1025.5
2023-02-27T08:07:16.966Z,1025.5
2023-02-27T08:08:32.949Z,1025.5
2023-02-27T08:09:49.337Z,1025.5
2023-02-27T08:11:05.316Z,1025.5
2023-02-27T08:12:21.499Z,1025.5
2023-02-27T08:13:37.886Z,1025.5
2023-02-27T08:14:54.079Z,1025.5
2023-02-27T08:16:09.291Z,1025.5
2023-02-27T08:17:25.480Z,1025.6
2023-02-27T08:18:41.447Z,1025.5
2023-02-27T08:19:57.846Z,1025.6
2023-02-27T08:21:13.834Z,1025.6
2023-02-27T08:22:30.013Z,1025.6
2023-02-27T08:23:46.414Z,1025.6
2023-02-27T08:25:01.634Z,1025.6
2023-02-27T08:26:16.616Z,1025.6
2023-02-27T08:27:32.040Z,1025.6
2023-02-27T08:28:47.252Z,1025.7
2023-02-27T08:30:03.437Z,1025.6
2023-02-27T08:31:19.627Z,1025.7
2023-02-27T08:32:35.810Z,1025.6
2023-02-27T08:33:51.786Z,1025.7
2023-02-27T08:35:08.183Z,1025.6
2023-02-27T08:36:24.381Z,1025.7
2023-02-27T08:37:40.567Z,1025.6
2023-02-27T08:38:56.744Z,1025.7
2023-02-27T08:40:12.941Z,1025.7
2023-02-27T08:41:29.122Z,1025.7
2023-02-27T08:42:45.312Z,1025.7
2023-02-27T08:44:01.492Z,1025.7
2023-02-27T08:45:16.708Z,1025.7
2023-02-27T08:46:32.887Z,1025.6
2023-02-27T08:47:49.083Z,1025.6
2023-02-27T08:49:05.060Z,1025.6
2023-02-27T08:50:21.241Z,1025.6
2023-02-27T08:51:37.634Z,1025.7
2023-02-27T08:52:53.611Z,1025.7
2023-02-27T08:54:09.043Z,1025.6
2023-02-27T08:55:24.234Z,1025.7
2023-02-27T08:56:40.424Z,1025.6
2023-02-27T08:57:56.615Z,1025.7
2023-02-27T08:59:12.798Z,1025.6
2023-02-27T09:00:28.994Z,1025.6
2023-02-27T09:01:45.191Z,1025.6
2023-02-27T09:03:01.370Z,1025.7
2023-02-27T09:04:17.342Z,1025.7
2023-02-27T09:05:33.751Z,1025.6
2023-02-27T09:06:49.922Z,1025.7
2023-02-27T09:08:06.123Z,1025.7
2023-02-27T09:09:22.087Z,1025.7
2023-02-27T09:10:38.494Z,1025.7
2023-02-27T09:11:53.699Z,1025.7
2023-02-27T09:13:09.670Z,1025.6
2023-02-27T09:14:25.847Z,1025.7
2023-02-27T09:15:42.042Z,1025.7
2023-02-27T09:16:58.449Z,1025.7
2023-02-27T09:18:14.645Z,1025.7
2023-02-27T09:19:30.826Z,1025.7
2023-02-27T09:20:46.040Z,1025.7
2023-02-27T09:22:01.232Z,1025.7
2023-02-27T09:23:16.462Z,1025.8
2023-02-27T09:24:31.669Z,1025.7
2023-02-27T09:25:47.841Z,1025.8
2023-02-27T09:27:03.805Z,1025.8
2023-02-27T09:28:20.217Z,1025.8
2023-02-27T09:29:36.415Z,1025.8
2023-02-27T09:30:52.607Z,1025.8
2023-02-27T09:32:08.791Z,1025.9
2023-02-27T09:33:24.975Z,1025.9
2023-02-27T09:35:57.123Z,1025.8
2023-02-27T09:37:13.542Z,1025.8
2023-02-27T09:38:29.715Z,1025.9
2023-02-27T09:39:45.916Z,1025.9
2023-02-27T09:41:01.123Z,1025.8
2023-02-27T09:42:17.073Z,1025.8
2023-02-27T09:43:33.491Z,1025.9
2023-02-27T09:44:49.667Z,1025.9
2023-02-27T09:46:05.856Z,1025.9
2023-02-27T09:47:22.055Z,1025.9
2023-02-27T09:48:38.000Z,1025.9
2023-02-27T09:49:54.208Z,1025.9
2023-02-27T09:51:09.650Z,1026
2023-02-27T09:52:24.840Z,1026
2023-02-27T09:53:41.031Z,1026
2023-02-27T09:54:57.222Z,1025.9
2023-02-27T09:56:13.411Z,1026
2023-02-27T09:57:29.366Z,1026
2023-02-27T09:58:45.778Z,1026
2023-02-27T10:00:01.754Z,1026
2023-02-27T10:01:18.160Z,1026
2023-02-27T10:02:34.338Z,1026
2023-02-27T10:03:50.536Z,1026.1
2023-02-27T10:05:06.724Z,1026.1
2023-02-27T10:06:22.916Z,1026
2023-02-27T10:07:39.103Z,1026
2023-02-27T10:08:54.071Z,1026
2023-02-27T10:10:10.495Z,1026
2023-02-27T10:11:26.676Z,1026.1
2023-02-27T10:12:42.624Z,1026.1
2023-02-27T10:13:58.809Z,1026.1
2023-02-27T10:15:15.241Z,1026.1
2023-02-27T10:16:31.420Z,1026.1
2023-02-27T10:17:46.626Z,1026.1
2023-02-27T10:19:01.602Z,1026.1
2023-02-27T10:20:17.051Z,1026.1
2023-02-27T10:21:32.251Z,1026.1
2023-02-27T10:22:47.472Z,1026
2023-02-27T10:24:02.672Z,1026.1
2023-02-27T10:25:18.620Z,1026.1
2023-02-27T10:26:34.825Z,1026.1
2023-02-27T10:27:51.233Z,1026.1
2023-02-27T10:29:07.191Z,1026.1
2023-02-27T10:30:23.612Z,1026.1
2023-02-27T10:31:39.799Z,1026.2
2023-02-27T10:32:55.989Z,1026.2
2023-02-27T10:34:11.939Z,1026.2
2023-02-27T10:35:28.120Z,1026.2
2023-02-27T10:36:44.539Z,1026.2
2023-02-27T10:38:00.510Z,1026.2
2023-02-27T10:39:16.693Z,1026.2
2023-02-27T10:40:32.123Z,1026.1
2023-02-27T10:41:48.313Z,1026.2
2023-02-27T10:43:04.508Z,1026.1
2023-02-27T10:44:20.693Z,1026.2
2023-02-27T10:45:36.649Z,1026.2
2023-02-27T10:46:53.062Z,1026.2
2023-02-27T10:48:09.021Z,1026.2
2023-02-27T10:49:24.470Z,1026.2
2023-02-27T10:50:39.678Z,1026.2
2023-02-27T10:51:54.655Z,1026.2
2023-02-27T10:53:10.080Z,1026.1
2023-02-27T10:54:26.279Z,1026.2
2023-02-27T10:55:42.468Z,1026.2
2023-02-27T10:56:58.656Z,1026.2
2023-02-27T10:58:14.587Z,1026.2
2023-02-27T10:59:30.782Z,1026.2
2023-02-27T11:00:47.218Z,1026.2
2023-02-27T11:02:03.394Z,1026.1
2023-02-27T11:03:19.591Z,1026.2
2023-02-27T11:04:35.778Z,1026.2
2023-02-27T11:05:51.960Z,1026.1
2023-02-27T11:07:08.138Z,1026.1
2023-02-27T11:08:24.334Z,1026.2
2023-02-27T11:09:39.546Z,1026.2
2023-02-27T11:10:55.721Z,1026.1
2023-02-27T11:12:11.903Z,1026.1
2023-02-27T11:13:28.098Z,1026.1
2023-02-27T11:14:44.278Z,1026
2023-02-27T11:16:00.472Z,1026
2023-02-27T11:17:16.415Z,1026.1
2023-02-27T11:18:31.878Z,1026.1
2023-02-27T11:19:47.069Z,1026
2023-02-27T11:21:02.059Z,1026
2023-02-27T11:22:18.479Z,1026.1
2023-02-27T11:23:33.680Z,1026.1
2023-02-27T11:24:49.871Z,1026.1
2023-02-27T11:26:06.056Z,1026.2
2023-02-27T11:27:22.243Z,1026.1
2023-02-27T11:28:38.437Z,1026.2
2023-02-27T11:29:54.384Z,1026.1
2023-02-27T11:31:10.799Z,1026.1
2023-02-27T11:32:26.994Z,1026.1
2023-02-27T11:33:43.172Z,1026.1
2023-02-27T11:34:58.414Z,1026.1
2023-02-27T11:36:14.321Z,1026
2023-02-27T11:37:30.772Z,1026.1
2023-02-27T11:38:46.957Z,1026
2023-02-27T11:40:03.148Z,1026.1
2023-02-27T11:41:19.083Z,1026.1
2023-02-27T11:42:35.511Z,1026
2023-02-27T11:43:51.464Z,1026.1
2023-02-27T11:45:07.879Z,1026.1
2023-02-27T11:46:24.087Z,1026
2023-02-27T11:47:39.299Z,1026
2023-02-27T11:48:54.491Z,1026
2023-02-27T11:50:10.690Z,1025.9
2023-02-27T11:51:26.623Z,1025.9
2023-02-27T11:52:43.066Z,1026
2023-02-27T11:53:59.251Z,1025.9
2023-02-27T11:55:15.190Z,1026
2023-02-27T11:56:31.380Z,1025.9
2023-02-27T11:57:47.559Z,1025.9
2023-02-27T11:59:03.736Z,1026
2023-02-27T12:00:20.183Z,1026
2023-02-27T12:01:36.376Z,1025.9
2023-02-27T12:02:52.547Z,1025.9
2023-02-27T12:04:08.737Z,1025.8
2023-02-27T12:05:23.941Z,1025.9
2023-02-27T12:06:40.134Z,1025.9
2023-02-27T12:07:56.071Z,1025.9
2023-02-27T12:09:12.500Z,1025.9
2023-02-27T12:10:28.702Z,1025.8
2023-02-27T12:11:44.889Z,1025.8
2023-02-27T12:13:01.066Z,1025.8
2023-02-27T12:14:16.038Z,1025.9
2023-02-27T12:15:31.495Z,1025.8
2023-02-27T12:16:47.677Z,1025.7
2023-02-27T12:18:03.864Z,1025.8
2023-02-27T12:19:19.793Z,1025.7
2023-02-27T12:20:35.987Z,1025.8
2023-02-27T12:21:52.158Z,1025.8
2023-02-27T12:23:08.614Z,1025.8
2023-02-27T12:24:24.790Z,1025.8
2023-02-27T12:25:40.979Z,1025.8
2023-02-27T12:26:57.168Z,1025.8
2023-02-27T12:28:13.368Z,1025.8
2023-02-27T12:29:29.550Z,1025.8
2023-02-27T12:30:45.732Z,1025.8
2023-02-27T12:32:00.938Z,1025.8
2023-02-27T12:33:16.860Z,1025.8
2023-02-27T12:34:33.313Z,1025.8
2023-02-27T12:35:49.246Z,1025.9
2023-02-27T12:37:05.423Z,1025.9
2023-02-27T12:38:21.869Z,1025.9
2023-02-27T12:39:38.064Z,1025.9
2023-02-27T12:40:53.274Z,1025.9
2023-02-27T12:42:08.486Z,1025.9
2023-02-27T12:43:23.687Z,1026
2023-02-27T12:44:38.890Z,1026
2023-02-27T12:45:53.853Z,1025.9
2023-02-27T12:47:09.052Z,1026
2023-02-27T12:48:25.507Z,1026
2023-02-27T12:49:41.686Z,1025.9
2023-02-27T12:50:57.885Z,1025.9
2023-02-27T12:52:13.801Z,1025.9
2023-02-27T12:53:30.254Z,1025.9
2023-02-27T12:54:46.436Z,1026
2023-02-27T12:56:02.623Z,1025.9
2023-02-27T12:57:18.552Z,1026
2023-02-27T12:58:34.997Z,1026
2023-02-27T12:59:51.186Z,1025.9
2023-02-27T13:01:07.388Z,1025.9
2023-02-27T13:02:23.000Z,1026
2023-02-27T13:03:38.765Z,1025.9
2023-02-27T13:04:54.966Z,1026
2023-02-27T13:06:11.145Z,1025.9
2023-02-27T13:07:27.069Z,1026
2023-02-27T13:08:43.522Z,1026
2023-02-27T13:09:59.709Z,1025.9
2023-02-27T13:11:15.619Z,1026
2023-02-27T13:12:31.099Z,1026
2023-02-27T13:13:46.045Z,1025.9
2023-02-27T13:15:01.253Z,1025.9
2023-02-27T13:16:16.718Z,1025.9
2023-02-27T13:17:31.942Z,1025.9
2023-02-27T13:18:47.142Z,1025.9
2023-02-27T13:20:03.071Z,1025.9
2023-02-27T13:21:19.516Z,1025.9
2023-02-27T13:22:35.446Z,1025.8
2023-02-27T13:23:51.625Z,1025.9
2023-02-27T13:25:08.075Z,1025.9
2023-02-27T13:26:24.267Z,1025.8
2023-02-27T13:27:40.459Z,1025.8
2023-02-27T13:28:56.652Z,1025.8
2023-02-27T13:30:12.565Z,1025.8
2023-02-27T13:31:28.753Z,1025.9
2023-02-27T13:32:45.214Z,1025.8
2023-02-27T13:34:01.125Z,1025.9
2023-02-27T13:35:16.598Z,1025.9
2023-02-27T13:36:32.512Z,1025.9
2023-02-27T13:37:48.708Z,1025.9
2023-02-27T13:39:05.164Z,1025.8
2023-02-27T13:40:21.350Z,1025.8
2023-02-27T13:41:37.528Z,1025.9
2023-02-27T13:42:53.719Z,1025.8
2023-02-27T13:44:08.656Z,1025.9
2023-02-27T13:45:23.870Z,1025.8
2023-02-27T13:46:40.324Z,1025.8
2023-02-27T13:47:55.545Z,1025.9
2023-02-27T13:49:10.466Z,1025.8
2023-02-27T13:50:26.927Z,1025.9
2023-02-27T13:51:43.124Z,1025.9
2023-02-27T13:52:59.036Z,1025.9
2023-02-27T13:54:15.483Z,1025.8
2023-02-27T13:55:31.680Z,1025.9
2023-02-27T13:56:47.858Z,1025.9
2023-02-27T13:58:04.051Z,1025.9
2023-02-27T13:59:19.958Z,1025.9
2023-02-27T14:00:36.159Z,1026
2023-02-27T14:01:52.332Z,1026
2023-02-27T14:03:08.800Z,1025.9
2023-02-27T14:04:25.000Z,1025.9
2023-02-27T14:05:40.196Z,1026
2023-02-27T14:06:56.372Z,1025.9
2023-02-27T14:08:12.560Z,1025.9
2023-02-27T14:09:28.757Z,1025.9
2023-02-27T14:10:44.675Z,1025.9
2023-02-27T14:12:00.853Z,1025.9
2023-02-27T14:13:17.048Z,1026
2023-02-27T14:14:32.249Z,1026
2023-02-27T14:15:47.461Z,1026
2023-02-27T14:17:02.952Z,1026
2023-02-27T14:18:18.156Z,1026
2023-02-27T14:19:34.345Z,1026
2023-02-27T14:20:50.261Z,1026.1
2023-02-27T14:22:06.718Z,1026
2023-02-27T14:23:22.627Z,1026
2023-02-27T14:24:39.109Z,1026
2023-02-27T14:25:55.288Z,1026
2023-02-27T14:27:11.190Z,1026.1
2023-02-27T14:28:27.674Z,1026.1
2023-02-27T14:29:43.865Z,1026.1
2023-02-27T14:30:59.768Z,1026.2
2023-02-27T14:32:16.231Z,1026.1
2023-02-27T14:33:32.426Z,1026.1
2023-02-27T14:34:47.624Z,1026.1
2023-02-27T14:36:03.808Z,1026.1
2023-02-27T14:37:19.998Z,1026.1
2023-02-27T14:38:35.902Z,1026.1
2023-02-27T14:39:52.092Z,1026.1
2023-02-27T14:41:08.291Z,1026.1
2023-02-27T14:42:24.755Z,1026.1
2023-02-27T14:43:39.983Z,1026.1
2023-02-27T14:44:55.180Z,1026.1
2023-02-27T14:46:10.106Z,1026.2
2023-02-27T14:47:26.713Z,1026.2
2023-02-27T14:48:42.612Z,1026.1
2023-02-27T14:49:59.091Z,1026.2
2023-02-27T14:51:15.272Z,1026.2
2023-02-27T14:52:31.468Z,1026.2
2023-02-27T14:53:47.645Z,1026.2
2023-02-27T14:55:03.850Z,1026.2
2023-02-27T14:56:20.026Z,1026.2
2023-02-27T14:57:36.230Z,1026.2
2023-02-27T14:58:52.411Z,1026.3
2023-02-27T15:00:08.600Z,1026.3
2023-02-27T15:01:24.796Z,1026.3
2023-02-27T15:02:40.975Z,1026.3
2023-02-27T15:03:55.895Z,1026.3
2023-02-27T15:05:12.078Z,1026.3
2023-02-27T15:06:28.561Z,1026.3
2023-02-27T15:07:44.758Z,1026.3
2023-02-27T15:09:00.944Z,1026.3
2023-02-27T15:10:17.121Z,1026.3
2023-02-27T15:11:33.307Z,1026.3
2023-02-27T15:12:48.540Z,1026.4
2023-02-27T15:14:03.437Z,1026.3
2023-02-27T15:15:19.931Z,1026.4
2023-02-27T15:16:35.817Z,1026.3
2023-02-27T15:17:52.297Z,1026.3
2023-02-27T15:19:08.497Z,1026.4
2023-02-27T15:20:24.398Z,1026.4
2023-02-27T15:21:40.567Z,1026.4
2023-02-27T15:22:57.063Z,1026.4
2023-02-27T15:24:12.948Z,1026.5
2023-02-27T15:25:29.443Z,1026.4
2023-02-27T15:26:45.626Z,1026.4
2023-02-27T15:28:01.806Z,1026.4
2023-02-27T15:29:18.000Z,1026.4
2023-02-27T15:30:33.218Z,1026.4
2023-02-27T15:31:49.350Z,1026.4
2023-02-27T15:33:05.544Z,1026.4
2023-02-27T15:34:21.778Z,1026.4
2023-02-27T15:35:37.973Z,1026.4
2023-02-27T15:36:54.159Z,1026.4
2023-02-27T15:38:10.340Z,1026.4
2023-02-27T15:39:25.560Z,1026.5
2023-02-27T15:40:40.714Z,1026.5
2023-02-27T15:41:55.977Z,1026.5
2023-02-27T15:43:11.175Z,1026.4
2023-02-27T15:44:27.381Z,1026.5
2023-02-27T15:45:42.586Z,1026.5
2023-02-27T15:46:57.749Z,1026.5
2023-02-27T15:48:13.986Z,1026.5
2023-02-27T15:49:29.197Z,1026.5
2023-02-27T15:50:45.341Z,1026.5
2023-02-27T15:52:01.519Z,1026.5
2023-02-27T15:53:17.755Z,1026.5
2023-02-27T15:54:33.891Z,1026.4
2023-02-27T15:55:50.092Z,1026.5
2023-02-27T15:57:06.339Z,1026.5
2023-02-27T15:58:22.522Z,1026.5
2023-02-27T15:59:38.711Z,1026.5